Time;durP1;ratioP1;P1;durP2;ratioP2;P2;SDS_P1;SDS_P2;PMS_P1;PMS_P2;Temp;Humidity;BMP_temperature;BMP_pressure;BME280_temperature;BME280_humidity;BME280_pressure;Samples;Min_cycle;Max_cycle;Signal;HPM_P1;HPM_P2
2022/06/11 00:01:49;;;;;;;5.28;1.80;;;18.90;76.40;;;;;;5031268;28;20452;-89
2022/06/11 00:04:32;;;;;;;6.43;1.67;;;18.90;76.40;;;;;;5031089;28;20053;-88
2022/06/11 00:07:09;;;;;;;5.70;2.00;;;18.90;76.40;;;;;;5034897;28;20079;-90
2022/06/11 00:09:36;;;;;;;3.47;1.70;;;18.90;76.40;;;;;;5030562;28;20107;-89
2022/06/11 00:12:05;;;;;;;3.95;1.77;;;18.90;76.40;;;;;;5035201;28;20056;-90
2022/06/11 00:14:33;;;;;;;6.55;1.83;;;18.90;76.40;;;;;;5015054;28;20049;-92
2022/06/11 00:17:02;;;;;;;5.13;2.03;;;18.90;76.40;;;;;;5034453;28;20091;-91
2022/06/11 00:19:30;;;;;;;4.40;1.77;;;18.80;76.40;;;;;;5030950;28;20061;-90
2022/06/11 00:21:57;;;;;;;4.05;1.50;;;18.90;76.30;;;;;;5032089;28;20471;-90
2022/06/11 00:24:26;;;;;;;5.30;1.80;;;18.80;76.30;;;;;;5026868;28;20115;-90
2022/06/11 00:26:55;;;;;;;9.57;1.70;;;18.80;76.20;;;;;;5033507;28;20053;-90
2022/06/11 00:29:27;;;;;;;8.25;1.80;;;18.80;76.20;;;;;;5016685;28;20057;-89
2022/06/11 00:31:54;;;;;;;7.80;1.80;;;18.80;76.10;;;;;;5017102;28;20045;-90
2022/06/11 00:34:22;;;;;;;8.43;2.05;;;18.80;75.90;;;;;;5030574;28;20045;-88
2022/06/11 00:36:50;;;;;;;4.32;1.42;;;18.70;75.90;;;;;;5016369;28;20465;-90
2022/06/11 00:39:21;;;;;;;6.97;1.88;;;18.70;75.70;;;;;;5034872;28;20514;-89
2022/06/11 00:41:52;;;;;;;3.75;1.52;;;18.70;75.70;;;;;;5033811;28;20061;-88
2022/06/11 00:44:19;;;;;;;5.88;1.80;;;18.60;75.60;;;;;;5033705;28;20111;-88
2022/06/11 00:46:52;;;;;;;8.73;1.88;;;18.60;75.60;;;;;;5016855;28;20169;-89
2022/06/11 00:49:22;;;;;;;4.93;1.95;;;18.60;75.50;;;;;;5030494;28;20057;-89
2022/06/11 00:51:58;;;;;;;5.85;1.73;;;18.60;75.50;;;;;;5031401;28;20057;-89
2022/06/11 00:54:26;;;;;;;7.45;1.90;;;18.60;75.50;;;;;;5029565;28;20057;-89
2022/06/11 00:56:56;;;;;;;8.25;1.90;;;18.60;75.50;;;;;;5004144;28;20053;-88
2022/06/11 00:59:33;;;;;;;8.40;2.20;;;18.60;75.40;;;;;;5029880;28;20042;-89
2022/06/11 01:02:00;;;;;;;7.47;2.00;;;18.50;75.40;;;;;;5033489;28;20052;-89
2022/06/11 01:04:48;;;;;;;8.00;2.33;;;18.50;75.40;;;;;;5030150;28;20045;-89
2022/06/11 01:07:34;;;;;;;5.47;1.58;;;18.50;75.30;;;;;;5020058;28;20484;-90
2022/06/11 01:10:25;;;;;;;6.30;1.80;;;18.50;75.30;;;;;;5015889;28;20570;-90
2022/06/11 01:13:05;;;;;;;5.20;1.42;;;18.40;75.30;;;;;;5015777;28;20076;-90
2022/06/11 01:15:45;;;;;;;7.47;1.90;;;18.40;75.30;;;;;;5016331;28;20045;-89
2022/06/11 01:18:27;;;;;;;5.93;2.08;;;18.40;75.20;;;;;;5031723;28;20049;-90
2022/06/11 01:21:25;;;;;;;9.02;2.13;;;18.40;75.20;;;;;;5009261;28;20529;-90
2022/06/11 01:24:01;;;;;;;5.13;1.77;;;18.40;75.10;;;;;;5015486;28;20049;-89
2022/06/11 01:26:46;;;;;;;5.25;1.50;;;18.40;75.10;;;;;;5032921;28;20103;-89
2022/06/11 01:29:46;;;;;;;6.97;1.70;;;18.40;75.10;;;;;;5029469;28;20053;-89
2022/06/11 01:32:17;;;;;;;8.25;2.15;;;18.40;75.10;;;;;;5013209;28;20134;-90
2022/06/11 01:35:02;;;;;;;8.02;1.95;;;18.40;75.00;;;;;;5015164;28;20048;-89
2022/06/11 01:37:45;;;;;;;7.65;1.85;;;18.40;75.00;;;;;;5011771;28;20057;-89
2022/06/11 01:40:24;;;;;;;7.25;1.80;;;18.40;74.90;;;;;;5018638;28;20103;-90
2022/06/11 01:42:59;;;;;;;9.68;1.88;;;18.40;74.90;;;;;;5032261;28;20115;-90
2022/06/11 01:45:30;;;;;;;7.72;2.03;;;18.30;74.90;;;;;;5033372;28;20104;-89
2022/06/11 01:47:59;;;;;;;6.70;1.65;;;18.30;74.90;;;;;;5032669;28;20158;-89
2022/06/11 01:50:31;;;;;;;7.55;2.03;;;18.30;74.80;;;;;;5015203;28;20497;-89
2022/06/11 01:53:14;;;;;;;6.82;1.70;;;18.30;74.80;;;;;;5032722;28;20053;-88
2022/06/11 01:55:52;;;;;;;6.03;2.00;;;18.30;74.80;;;;;;5007806;28;20457;-89
2022/06/11 01:58:38;;;;;;;8.43;1.95;;;18.30;74.80;;;;;;5013866;28;20049;-89
2022/06/11 02:01:29;;;;;;;7.60;1.90;;;18.30;74.80;;;;;;5017390;28;20056;-89
2022/06/11 02:04:15;;;;;;;5.88;1.80;;;18.20;74.80;;;;;;5032232;28;20061;-88
2022/06/11 02:06:47;;;;;;;7.47;2.20;;;18.20;74.70;;;;;;5014153;28;20100;-90
2022/06/11 02:09:38;;;;;;;6.35;1.75;;;18.30;74.80;;;;;;5012896;28;20144;-90
2022/06/11 02:12:45;;;;;;;7.22;1.85;;;18.20;74.80;;;;;;5031982;28;20092;-89
2022/06/11 02:15:27;;;;;;;6.95;1.58;;;18.20;74.80;;;;;;5030847;28;20057;-90
2022/06/11 02:17:59;;;;;;;5.07;1.52;;;18.20;74.80;;;;;;5032279;28;20041;-91
2022/06/11 02:20:52;;;;;;;8.35;2.20;;;18.20;74.80;;;;;;5032087;28;20107;-90
2022/06/11 02:23:25;;;;;;;6.45;1.83;;;18.20;74.70;;;;;;5025889;28;20049;-89
2022/06/11 02:25:57;;;;;;;7.88;1.80;;;18.20;74.70;;;;;;5032283;28;20045;-89
2022/06/11 02:28:28;;;;;;;10.98;2.05;;;18.20;74.70;;;;;;5024177;28;20522;-90
2022/06/11 02:30:59;;;;;;;8.23;2.13;;;18.20;74.70;;;;;;5031959;28;20045;-90
2022/06/11 02:33:26;;;;;;;8.27;1.98;;;18.10;74.70;;;;;;5015135;28;20061;-89
2022/06/11 02:35:55;;;;;;;6.55;2.00;;;18.10;74.70;;;;;;5031974;28;20092;-90
2022/06/11 02:38:26;;;;;;;13.40;2.17;;;18.20;74.60;;;;;;5031584;28;20049;-90
2022/06/11 02:41:01;;;;;;;7.93;1.98;;;18.10;74.60;;;;;;5031862;28;20046;-89
2022/06/11 02:43:29;;;;;;;9.50;2.03;;;18.10;74.60;;;;;;5014620;28;20049;-90
2022/06/11 02:45:56;;;;;;;8.45;1.95;;;18.10;74.60;;;;;;5014421;28;20118;-90
2022/06/11 02:48:23;;;;;;;13.27;2.42;;;18.10;74.50;;;;;;5031291;28;20107;-89
2022/06/11 02:50:51;;;;;;;7.15;1.80;;;18.10;74.50;;;;;;5032115;28;20052;-90
2022/06/11 02:53:18;;;;;;;8.20;1.98;;;18.00;74.40;;;;;;5028081;28;20505;-89
2022/06/11 02:55:45;;;;;;;10.82;2.20;;;18.10;74.40;;;;;;5033471;28;20045;-89
2022/06/11 02:58:13;;;;;;;10.55;2.05;;;18.10;74.40;;;;;;5036352;28;20050;-89
2022/06/11 03:00:45;;;;;;;8.02;2.47;;;18.00;74.40;;;;;;5035823;28;20056;-90
2022/06/11 03:03:12;;;;;;;8.18;2.05;;;18.00;74.30;;;;;;5016726;28;20054;-89
2022/06/11 03:05:41;;;;;;;6.88;1.77;;;18.00;74.30;;;;;;5035789;28;20041;-89
2022/06/11 03:08:09;;;;;;;9.30;2.20;;;18.00;74.30;;;;;;5035530;28;20460;-89
2022/06/11 03:10:37;;;;;;;10.00;2.50;;;17.90;74.30;;;;;;5035956;28;20505;-89
2022/06/11 03:13:06;;;;;;;10.10;2.28;;;17.90;74.20;;;;;;5018397;28;20045;-89
2022/06/11 03:15:34;;;;;;;7.45;1.90;;;18.00;74.20;;;;;;5036284;28;20076;-89
2022/06/11 03:18:01;;;;;;;7.70;2.20;;;17.90;74.20;;;;;;5035808;28;20061;-89
2022/06/11 03:20:31;;;;;;;11.95;2.38;;;17.90;74.10;;;;;;5035577;28;20052;-89
2022/06/11 03:22:58;;;;;;;8.20;2.38;;;17.90;74.10;;;;;;5017491;28;20048;-90
2022/06/11 03:25:26;;;;;;;10.25;2.30;;;17.90;74.00;;;;;;5027359;28;20421;-89
2022/06/11 03:27:53;;;;;;;10.27;2.50;;;17.90;73.90;;;;;;5032785;28;20082;-89
2022/06/11 03:30:20;;;;;;;10.75;2.65;;;17.90;73.90;;;;;;5034983;28;20042;-89
2022/06/11 03:32:47;;;;;;;14.02;2.83;;;17.90;73.80;;;;;;5035501;28;20053;-89
2022/06/11 03:35:15;;;;;;;10.90;2.50;;;17.90;73.80;;;;;;5031085;28;20057;-88
2022/06/11 03:37:43;;;;;;;8.77;2.65;;;17.80;73.80;;;;;;5013933;28;20053;-89
2022/06/11 03:40:11;;;;;;;10.73;2.78;;;17.80;73.70;;;;;;5017796;28;20117;-88
2022/06/11 03:42:39;;;;;;;12.90;3.17;;;17.80;73.70;;;;;;5017639;28;20444;-89
2022/06/11 03:45:07;;;;;;;12.60;2.92;;;17.80;73.60;;;;;;5018052;28;20437;-89
2022/06/11 03:47:36;;;;;;;10.85;2.30;;;17.80;73.60;;;;;;5034858;28;20489;-89
2022/06/11 03:50:05;;;;;;;10.90;2.38;;;17.70;73.50;;;;;;5034969;28;20421;-89
2022/06/11 03:52:32;;;;;;;13.18;2.45;;;17.70;73.50;;;;;;5034760;28;20386;-89
2022/06/11 03:54:59;;;;;;;10.35;2.47;;;17.70;73.50;;;;;;5034968;28;22587;-89
2022/06/11 03:57:27;;;;;;;11.48;2.95;;;17.70;73.40;;;;;;5035215;28;20061;-90
2022/06/11 03:59:54;;;;;;;8.70;2.25;;;17.70;73.40;;;;;;5017368;28;20053;-87
2022/06/11 04:02:21;;;;;;;10.75;2.78;;;17.60;73.40;;;;;;5031333;28;20060;-89
2022/06/11 04:04:48;;;;;;;11.43;2.47;;;17.60;73.30;;;;;;5022329;28;20112;-88
2022/06/11 04:07:15;;;;;;;11.75;3.08;;;17.60;73.30;;;;;;5030057;28;20037;-88
2022/06/11 04:09:44;;;;;;;14.13;2.72;;;17.60;73.30;;;;;;5033880;28;20118;-87
2022/06/11 04:12:15;;;;;;;12.10;2.95;;;17.60;73.30;;;;;;5034284;28;20049;-88
2022/06/11 04:14:45;;;;;;;16.45;2.83;;;17.60;73.30;;;;;;5033788;28;20569;-87
2022/06/11 04:17:29;;;;;;;8.07;2.17;;;17.50;73.30;;;;;;5016189;28;20050;-88
2022/06/11 04:19:57;;;;;;;10.93;2.95;;;17.50;73.30;;;;;;5048584;28;20072;-88
2022/06/11 04:22:24;;;;;;;12.20;2.92;;;17.50;73.20;;;;;;5016433;28;20176;-89
2022/06/11 04:24:51;;;;;;;10.13;2.40;;;17.50;73.20;;;;;;5033873;28;20056;-88
2022/06/11 04:27:20;;;;;;;14.10;3.22;;;17.50;73.20;;;;;;5016786;28;20049;-88
2022/06/11 04:29:52;;;;;;;11.18;2.85;;;17.50;73.20;;;;;;5033605;28;20062;-88
2022/06/11 04:32:20;;;;;;;12.40;2.88;;;17.50;73.10;;;;;;5016357;28;20064;-88
2022/06/11 04:34:48;;;;;;;9.20;2.45;;;17.40;73.10;;;;;;5033435;28;20045;-88
2022/06/11 04:37:19;;;;;;;11.73;2.78;;;17.40;73.00;;;;;;5033613;28;20049;-88
2022/06/11 04:39:49;;;;;;;12.18;2.70;;;17.40;73.00;;;;;;5033680;28;20633;-88
2022/06/11 04:42:16;;;;;;;12.85;2.80;;;17.40;73.00;;;;;;5014858;28;20050;-88
2022/06/11 04:44:45;;;;;;;12.98;3.00;;;17.40;72.90;;;;;;5033221;28;20099;-87
2022/06/11 04:47:18;;;;;;;12.75;2.97;;;17.40;72.90;;;;;;5033272;28;20041;-88
2022/06/11 04:49:46;;;;;;;15.63;2.97;;;17.40;72.80;;;;;;5032865;28;20099;-87
2022/06/11 04:52:13;;;;;;;16.45;3.15;;;17.40;72.80;;;;;;5033485;28;20509;-87
2022/06/11 04:54:40;;;;;;;12.75;3.10;;;17.40;72.80;;;;;;5033404;28;20042;-86
2022/06/11 04:57:06;;;;;;;9.60;2.42;;;17.40;72.70;;;;;;5015234;28;20107;-87
2022/06/11 04:59:33;;;;;;;12.25;2.85;;;17.40;72.70;;;;;;5032882;28;20045;-87
2022/06/11 05:02:02;;;;;;;14.90;3.03;;;17.40;72.70;;;;;;5033165;28;20041;-86
2022/06/11 05:04:30;;;;;;;13.93;2.47;;;17.30;72.70;;;;;;5032743;28;20045;-85
2022/06/11 05:06:57;;;;;;;11.10;2.55;;;17.40;72.70;;;;;;5015115;28;20038;-86
2022/06/11 05:09:26;;;;;;;13.20;3.13;;;17.30;72.70;;;;;;5033477;28;20064;-85
2022/06/11 05:11:53;;;;;;;11.30;2.83;;;17.30;72.70;;;;;;5032724;28;20054;-86
2022/06/11 05:14:20;;;;;;;11.88;2.58;;;17.30;72.70;;;;;;5032860;28;20053;-85
2022/06/11 05:16:48;;;;;;;12.00;3.33;;;17.30;72.70;;;;;;5032621;28;20057;-85
2022/06/11 05:19:18;;;;;;;12.05;2.80;;;17.30;72.70;;;;;;5031310;28;20648;-85
2022/06/11 05:21:46;;;;;;;16.30;3.33;;;17.30;72.70;;;;;;5032997;28;20084;-85
2022/06/11 05:24:14;;;;;;;12.75;2.88;;;17.30;72.70;;;;;;5033000;28;20095;-85
2022/06/11 05:26:49;;;;;;;14.98;3.45;;;17.30;72.70;;;;;;5039455;28;20045;-89
2022/06/11 05:29:44;;;;;;;14.32;2.92;;;17.30;72.70;;;;;;5029459;28;20045;-90
2022/06/11 05:32:11;;;;;;;13.02;2.70;;;17.30;72.70;;;;;;5014631;28;20045;-91
2022/06/11 05:34:38;;;;;;;14.85;3.20;;;17.30;72.70;;;;;;5012281;28;20053;-90
2022/06/11 05:37:05;;;;;;;11.07;3.10;;;17.40;72.70;;;;;;5029975;28;20050;-89
2022/06/11 05:39:39;;;;;;;12.20;2.92;;;17.30;72.60;;;;;;5028357;28;20056;-88
2022/06/11 05:42:07;;;;;;;16.30;3.30;;;17.30;72.60;;;;;;5027393;28;20464;-89
2022/06/11 05:44:34;;;;;;;11.23;3.03;;;17.30;72.60;;;;;;5020680;28;20049;-90
2022/06/11 05:47:01;;;;;;;14.25;2.90;;;17.30;72.60;;;;;;5022720;28;20049;-88
2022/06/11 05:49:34;;;;;;;16.83;3.38;;;17.40;72.60;;;;;;5028642;28;20061;-89
2022/06/11 05:52:05;;;;;;;14.30;2.97;;;17.30;72.60;;;;;;5029550;28;20108;-89
2022/06/11 05:54:34;;;;;;;11.18;2.20;;;17.30;72.60;;;;;;5013658;28;20108;-89
2022/06/11 05:57:05;;;;;;;12.57;2.60;;;17.40;72.60;;;;;;5025729;28;20501;-89
2022/06/11 05:59:38;;;;;;;13.98;3.22;;;17.40;72.60;;;;;;5020684;28;20409;-91
2022/06/11 06:02:10;;;;;;;14.02;2.88;;;17.30;72.50;;;;;;5015804;28;20049;-89
2022/06/11 06:04:38;;;;;;;16.92;3.03;;;17.30;72.50;;;;;;4999647;28;20046;-90
2022/06/11 06:07:07;;;;;;;10.73;2.60;;;17.30;72.50;;;;;;5012763;28;20133;-90
2022/06/11 06:09:34;;;;;;;14.40;3.30;;;17.40;72.50;;;;;;5029326;28;20115;-88
2022/06/11 06:12:02;;;;;;;22.70;3.63;;;17.40;72.50;;;;;;5012283;28;20050;-85
2022/06/11 06:14:30;;;;;;;17.25;3.53;;;17.30;72.50;;;;;;5012387;28;20053;-88
2022/06/11 06:16:57;;;;;;;21.80;3.40;;;17.40;72.60;;;;;;5013588;28;20498;-90
2022/06/11 06:19:44;;;;;;;15.25;3.25;;;17.40;72.60;;;;;;5012054;28;20147;-88
2022/06/11 06:22:10;;;;;;;16.48;3.58;;;17.40;72.60;;;;;;5028430;28;20057;-89
2022/06/11 06:24:37;;;;;;;18.30;3.13;;;17.40;72.70;;;;;;5015657;28;20050;-89
2022/06/11 06:27:04;;;;;;;14.27;3.55;;;17.40;72.70;;;;;;5015010;28;20057;-89
2022/06/11 06:29:31;;;;;;;12.25;2.63;;;17.40;72.70;;;;;;5025366;28;20119;-89
2022/06/11 06:31:58;;;;;;;15.25;3.55;;;17.40;72.70;;;;;;5024786;28;20453;-90
2022/06/11 06:34:25;;;;;;;14.82;3.10;;;17.40;72.80;;;;;;5026906;28;20515;-88
2022/06/11 06:36:52;;;;;;;15.95;3.03;;;17.40;72.80;;;;;;5029136;28;20057;-89
2022/06/11 06:39:19;;;;;;;13.45;3.00;;;17.40;72.80;;;;;;5014499;28;20057;-91
2022/06/11 06:41:47;;;;;;;13.52;3.10;;;17.40;72.80;;;;;;5022343;28;20049;-88
2022/06/11 06:44:15;;;;;;;16.30;3.75;;;17.50;72.80;;;;;;5023598;28;20046;-88
2022/06/11 06:46:42;;;;;;;19.00;3.55;;;17.50;72.80;;;;;;5015013;28;20523;-90
2022/06/11 06:49:15;;;;;;;12.18;2.97;;;17.50;72.80;;;;;;5013517;28;20125;-89
2022/06/11 06:51:42;;;;;;;14.55;3.40;;;17.60;72.80;;;;;;5030759;28;20049;-88
2022/06/11 06:54:09;;;;;;;17.40;3.65;;;17.60;72.80;;;;;;5015990;28;20058;-88
2022/06/11 06:56:36;;;;;;;15.98;3.58;;;17.60;72.80;;;;;;5007813;28;20124;-89
2022/06/11 06:59:04;;;;;;;15.45;2.97;;;17.70;72.60;;;;;;5021706;28;20382;-91
2022/06/11 07:01:32;;;;;;;15.45;3.47;;;17.70;72.60;;;;;;5014180;28;20745;-90
2022/06/11 07:03:59;;;;;;;20.50;3.47;;;17.70;72.50;;;;;;5013836;28;20568;-91
2022/06/11 07:06:46;;;;;;;18.10;3.30;;;17.80;72.50;;;;;;5014119;28;20050;-90
2022/06/11 07:09:13;;;;;;;13.82;3.55;;;17.80;72.50;;;;;;5014966;28;20053;-89
2022/06/11 07:11:40;;;;;;;16.23;3.35;;;17.90;72.40;;;;;;5025670;28;20046;-90
2022/06/11 07:14:07;;;;;;;10.57;2.95;;;17.90;72.40;;;;;;5024377;28;20101;-91
2022/06/11 07:16:43;;;;;;;16.55;3.45;;;17.90;72.40;;;;;;4999304;28;20057;-90
2022/06/11 07:19:16;;;;;;;15.15;3.00;;;17.90;72.30;;;;;;5012586;28;20061;-92
2022/06/11 07:21:48;;;;;;;14.82;2.70;;;18.00;72.30;;;;;;5026913;28;20498;-89
2022/06/11 07:24:19;;;;;;;12.00;2.95;;;18.00;72.20;;;;;;5026186;28;20111;-90
2022/06/11 07:26:58;;;;;;;17.33;3.33;;;18.10;72.20;;;;;;5016732;28;20054;-92
2022/06/11 07:29:34;;;;;;;10.75;2.70;;;18.10;72.10;;;;;;4997124;28;20074;-89
2022/06/11 07:32:04;;;;;;;14.05;2.97;;;18.20;72.10;;;;;;5020379;28;20053;-90
2022/06/11 07:34:31;;;;;;;16.52;3.00;;;18.20;72.00;;;;;;5013792;28;20057;-89
2022/06/11 07:36:59;;;;;;;15.65;3.10;;;18.30;71.90;;;;;;5027290;28;20053;-90
2022/06/11 07:39:26;;;;;;;14.52;3.05;;;18.40;71.90;;;;;;5026104;28;20041;-90
2022/06/11 07:41:53;;;;;;;13.35;3.20;;;18.40;71.80;;;;;;5018376;28;20524;-92
2022/06/11 07:44:20;;;;;;;11.20;2.90;;;18.40;71.60;;;;;;5005972;28;20042;-91
2022/06/11 07:46:47;;;;;;;12.85;3.55;;;18.50;71.50;;;;;;5006596;28;20452;-91
2022/06/11 07:49:14;;;;;;;14.55;3.33;;;18.60;71.50;;;;;;5018626;28;20531;-89
2022/06/11 07:51:41;;;;;;;16.00;3.20;;;18.60;71.40;;;;;;5034646;28;20049;-90
2022/06/11 07:54:08;;;;;;;16.70;3.10;;;18.70;71.20;;;;;;5028426;28;20115;-89
2022/06/11 07:56:37;;;;;;;12.70;2.90;;;18.70;71.10;;;;;;5020429;28;20057;-89
2022/06/11 07:59:05;;;;;;;12.85;2.63;;;18.80;70.90;;;;;;5025429;28;20053;-90
2022/06/11 08:01:32;;;;;;;16.92;3.65;;;18.90;70.70;;;;;;5017431;28;20045;-89
2022/06/11 08:04:00;;;;;;;14.10;3.22;;;18.90;70.60;;;;;;5014399;28;20053;-90
2022/06/11 08:06:27;;;;;;;11.32;2.80;;;19.00;70.50;;;;;;5030813;28;20079;-92
2022/06/11 08:08:54;;;;;;;14.15;3.13;;;19.10;70.30;;;;;;5010569;28;20054;-90
2022/06/11 08:11:22;;;;;;;11.35;3.20;;;19.10;70.20;;;;;;5030079;28;20494;-91
2022/06/11 08:13:49;;;;;;;10.88;2.40;;;19.20;70.00;;;;;;5005588;28;20050;-90
2022/06/11 08:16:16;;;;;;;11.75;2.92;;;19.30;69.80;;;;;;5015781;28;20738;-91
2022/06/11 08:18:44;;;;;;;12.43;2.72;;;19.40;69.70;;;;;;4998952;28;20073;-91
2022/06/11 08:21:11;;;;;;;14.00;3.03;;;19.40;69.60;;;;;;5034141;28;20132;-91
2022/06/11 08:23:39;;;;;;;10.10;2.33;;;19.50;69.30;;;;;;5013271;28;20054;-91
2022/06/11 08:26:06;;;;;;;12.73;3.20;;;19.50;69.10;;;;;;5002156;28;20054;-89
2022/06/11 08:28:36;;;;;;;9.38;2.58;;;19.60;69.00;;;;;;5019253;28;20041;-92
2022/06/11 08:31:04;;;;;;;14.07;3.10;;;19.70;68.80;;;;;;5017453;28;20057;-91
2022/06/11 08:33:33;;;;;;;10.80;2.60;;;19.70;68.70;;;;;;5018383;28;20131;-90
2022/06/11 08:36:00;;;;;;;9.82;2.60;;;19.90;68.50;;;;;;4998501;28;20070;-92
2022/06/11 08:38:27;;;;;;;15.32;3.47;;;19.90;68.30;;;;;;5015087;28;20100;-93
2022/06/11 08:40:55;;;;;;;8.88;2.17;;;19.90;68.20;;;;;;5005511;28;20061;-92
2022/06/11 08:43:35;;;;;;;12.68;2.67;;;20.00;68.00;;;;;;5014447;28;20058;-94
2022/06/11 08:46:12;;;;;;;8.90;2.38;;;20.20;67.80;;;;;;4999221;28;20050;-92
2022/06/11 08:48:42;;;;;;;10.32;2.75;;;20.20;67.70;;;;;;5015419;28;20054;-91
2022/06/11 08:51:19;;;;;;;10.60;2.67;;;20.30;67.50;;;;;;5021658;28;20062;-94
2022/06/11 08:53:48;;;;;;;13.13;3.00;;;20.40;67.30;;;;;;5011878;28;20112;-95
2022/06/11 08:56:45;;;;;;;11.13;2.45;;;20.40;67.20;;;;;;5017558;28;20053;-93
2022/06/11 08:59:39;;;;;;;8.32;2.13;;;20.50;67.00;;;;;;5010745;28;20062;-92
2022/06/11 09:02:24;;;;;;;9.55;2.28;;;20.50;66.80;;;;;;5007237;28;20046;-95
2022/06/11 09:05:24;;;;;;;9.02;2.05;;;20.60;66.70;;;;;;5025205;28;20095;-93
2022/06/11 09:08:00;;;;;;;12.98;2.85;;;20.70;66.60;;;;;;5014391;28;20520;-93
2022/06/11 09:10:39;;;;;;;13.23;2.80;;;20.80;66.60;;;;;;5002099;28;20510;-95
2022/06/11 09:13:23;;;;;;;10.45;2.22;;;20.80;66.50;;;;;;5013658;28;20057;-93
2022/06/11 09:16:04;;;;;;;7.55;2.20;;;20.90;66.20;;;;;;4998089;28;20069;-93
2022/06/11 09:18:51;;;;;;;9.77;2.13;;;20.90;66.10;;;;;;5014396;28;20050;-92
2022/06/11 09:21:47;;;;;;;11.23;2.90;;;21.10;66.00;;;;;;5015511;28;20076;-93
2022/06/11 09:24:43;;;;;;;9.93;2.45;;;21.10;65.90;;;;;;5014927;28;20054;-93
2022/06/11 09:27:29;;;;;;;11.70;2.85;;;21.20;65.70;;;;;;5014326;28;20061;-92
2022/06/11 09:30:08;;;;;;;9.60;2.55;;;21.30;65.60;;;;;;5032842;28;20061;-92
2022/06/11 09:32:51;;;;;;;10.40;2.47;;;21.30;65.50;;;;;;5031069;28;20116;-93
2022/06/11 09:35:21;;;;;;;12.65;2.72;;;21.40;65.40;;;;;;5013104;28;20054;-91
2022/06/11 09:37:51;;;;;;;8.05;2.38;;;21.40;65.30;;;;;;5024474;28;20505;-91
2022/06/11 09:40:47;;;;;;;11.35;2.60;;;21.40;65.30;;;;;;5010356;28;20054;-95
2022/06/11 09:43:53;;;;;;;13.75;3.03;;;21.40;65.20;;;;;;4999662;28;20045;-93
2022/06/11 09:46:35;;;;;;;9.27;2.40;;;21.40;65.20;;;;;;4996998;28;20056;-92
2022/06/11 09:49:32;;;;;;;7.72;2.20;;;21.40;65.20;;;;;;4998210;28;20054;-91
2022/06/11 09:52:51;;;;;;;12.65;2.50;;;21.40;65.10;;;;;;5001029;28;20045;-93
2022/06/11 09:55:41;;;;;;;9.73;2.50;;;21.40;65.10;;;;;;4957554;28;20109;-92
2022/06/11 09:58:44;;;;;;;7.90;2.38;;;21.40;65.10;;;;;;4956673;28;20050;-93
2022/06/11 10:01:16;;;;;;;9.15;2.00;;;21.50;65.10;;;;;;4956563;28;20046;-92
2022/06/11 10:03:53;;;;;;;10.23;2.60;;;21.50;65.10;;;;;;4956758;28;20051;-92
2022/06/11 10:06:26;;;;;;;13.02;3.03;;;21.40;65.10;;;;;;4957790;28;20054;-93
2022/06/11 10:08:58;;;;;;;12.15;2.85;;;21.50;65.20;;;;;;4952326;28;20117;-91
2022/06/11 10:11:39;;;;;;;11.25;2.67;;;21.50;65.20;;;;;;4957010;28;20150;-92
2022/06/11 10:14:29;;;;;;;10.65;2.30;;;21.50;65.20;;;;;;4981311;28;20062;-91
2022/06/11 10:17:02;;;;;;;8.55;2.42;;;21.50;65.20;;;;;;4948321;28;20054;-93
2022/06/11 10:19:32;;;;;;;9.93;2.43;;;21.50;65.20;;;;;;4957099;28;20059;-94
2022/06/11 10:22:12;;;;;;;11.15;2.60;;;21.50;65.20;;;;;;4972959;28;20865;-95
2022/06/11 10:24:47;;;;;;;9.70;2.40;;;21.50;65.10;;;;;;4956952;28;20515;-92
2022/06/11 10:27:17;;;;;;;10.45;2.17;;;21.50;65.10;;;;;;4957384;28;20050;-95
2022/06/11 10:29:50;;;;;;;8.95;2.15;;;21.60;65.20;;;;;;4973254;28;20520;-95
2022/06/11 10:32:25;;;;;;;8.27;2.20;;;21.60;65.20;;;;;;4975536;28;20057;-93
2022/06/11 10:35:00;;;;;;;10.35;2.10;;;21.60;65.20;;;;;;5004044;28;20050;-92
2022/06/11 10:37:39;;;;;;;12.82;2.78;;;21.70;65.20;;;;;;5012763;28;20116;-93
2022/06/11 10:40:21;;;;;;;8.90;2.17;;;21.70;65.10;;;;;;4997870;28;20041;-94
2022/06/11 10:42:57;;;;;;;7.30;2.03;;;21.70;65.00;;;;;;5016672;28;20390;-94
2022/06/11 10:45:29;;;;;;;10.65;2.20;;;21.70;64.90;;;;;;5036273;28;20060;-92
2022/06/11 10:47:59;;;;;;;11.98;2.28;;;21.80;65.00;;;;;;5016950;28;20061;-94
2022/06/11 10:50:33;;;;;;;8.48;2.13;;;21.80;65.00;;;;;;5013046;28;20057;-93
2022/06/11 10:53:12;;;;;;;6.88;1.90;;;21.80;65.00;;;;;;5004892;28;20490;-91
2022/06/11 10:56:01;;;;;;;9.55;2.30;;;21.90;65.00;;;;;;5007505;28;20060;-92
2022/06/11 10:58:52;;;;;;;9.73;2.40;;;21.90;64.90;;;;;;5004104;28;20045;-94
2022/06/11 11:01:41;;;;;;;6.28;1.65;;;21.90;64.90;;;;;;5012512;28;20567;-95
2022/06/11 11:04:26;;;;;;;7.55;1.90;;;22.00;64.80;;;;;;5014670;28;20057;-94
2022/06/11 11:07:07;;;;;;;8.80;2.35;;;22.00;64.70;;;;;;5017060;28;20053;-94
2022/06/11 11:09:34;;;;;;;7.13;1.98;;;22.10;64.70;;;;;;5033670;28;20045;-93
2022/06/11 11:12:06;;;;;;;6.88;2.13;;;22.10;64.60;;;;;;5015321;28;20531;-95
2022/06/11 11:14:41;;;;;;;10.38;2.13;;;22.20;64.50;;;;;;5030275;28;20053;-95
2022/06/11 11:17:17;;;;;;;8.07;1.98;;;22.20;64.40;;;;;;5022431;28;20464;-95
2022/06/11 11:22:41;;;;;;;5.47;1.90;;;22.30;64.30;;;;;;5024029;28;20494;-95
2022/06/11 11:25:19;;;;;;;6.97;1.90;;;22.30;64.20;;;;;;5001058;28;20046;-94
2022/06/11 11:27:50;;;;;;;8.85;2.35;;;22.30;64.20;;;;;;5001612;28;20074;-93
2022/06/11 11:30:17;;;;;;;9.50;2.33;;;22.30;64.20;;;;;;5002394;28;20062;-94
2022/06/11 11:32:47;;;;;;;7.57;2.13;;;22.40;64.20;;;;;;5035091;28;20068;-93
2022/06/11 11:35:26;;;;;;;7.15;1.95;;;22.40;64.10;;;;;;5018688;28;20061;-95
2022/06/11 11:37:57;;;;;;;7.75;2.33;;;22.40;63.90;;;;;;5023430;28;20049;-95
2022/06/11 11:40:31;;;;;;;8.20;2.17;;;22.40;63.90;;;;;;5023219;28;20061;-95
2022/06/11 11:46:19;;;;;;;7.80;2.00;;;22.40;63.60;;;;;;5020869;28;20053;-96
2022/06/11 11:48:57;;;;;;;10.10;2.00;;;22.50;63.60;;;;;;5021738;28;20080;-94
2022/06/11 11:51:31;;;;;;;7.47;1.77;;;22.60;63.50;;;;;;5021364;28;20411;-94
2022/06/11 11:54:00;;;;;;;;;;;22.60;63.30;;;;;;5022478;28;20080;-96
2022/06/11 11:56:34;;;;;;;8.25;2.17;;;22.60;63.20;;;;;;5029952;28;19906;-96
2022/06/11 11:59:17;;;;;;;7.45;1.77;;;22.70;63.20;;;;;;5023514;28;20112;-96
2022/06/11 12:01:46;;;;;;;9.45;1.45;;;22.70;63.20;;;;;;5025292;28;20056;-96
2022/06/11 12:04:31;;;;;;;7.93;2.00;;;22.70;63.20;;;;;;5019985;28;20045;-94
2022/06/11 12:07:03;;;;;;;10.45;2.08;;;22.80;63.10;;;;;;4997498;28;20054;-96
2022/06/11 12:09:37;;;;;;;6.65;1.90;;;22.80;63.00;;;;;;5005457;28;20050;-96
2022/06/11 12:12:17;;;;;;;10.00;2.35;;;22.80;62.90;;;;;;5006287;28;20054;-94
2022/06/11 12:15:15;;;;;;;8.98;2.28;;;22.90;62.70;;;;;;5003731;28;20113;-96
2022/06/11 12:18:05;;;;;;;6.90;1.98;;;22.90;62.60;;;;;;4980781;28;20447;-96
2022/06/11 12:20:42;;;;;;;8.38;2.15;;;22.90;62.50;;;;;;4982771;28;20576;-93
2022/06/11 12:23:20;;;;;;;11.05;2.58;;;22.90;62.40;;;;;;4963261;28;20047;-94
2022/06/11 12:26:05;;;;;;;7.40;1.98;;;22.90;62.30;;;;;;4965912;28;20050;-96
2022/06/11 12:28:38;;;;;;;11.10;2.22;;;23.00;62.20;;;;;;4979419;28;20523;-95
2022/06/11 12:31:13;;;;;;;7.88;2.05;;;23.00;62.10;;;;;;4982642;28;20423;-93
2022/06/11 12:37:01;;;;;;;9.27;1.77;;;23.20;62.00;;;;;;5082790;22;20067;-95
2022/06/11 12:39:41;;;;;;;7.43;2.10;;;23.20;61.90;;;;;;5043789;28;20049;-92
2022/06/11 12:42:26;;;;;;;8.00;1.88;;;23.30;61.70;;;;;;5035609;28;20057;-95
2022/06/11 12:45:18;;;;;;;8.10;1.75;;;23.40;61.40;;;;;;5065350;28;20659;-94
2022/06/11 12:48:19;;;;;;;7.32;1.77;;;23.40;61.10;;;;;;5047418;28;20464;-95
2022/06/11 12:51:10;;;;;;;8.23;2.00;;;23.50;61.00;;;;;;5034825;28;20029;-96
2022/06/11 12:53:56;;;;;;;7.82;1.90;;;23.60;60.90;;;;;;5062354;28;20072;-94
2022/06/11 12:56:32;;;;;;;8.65;1.52;;;23.60;60.70;;;;;;5042195;28;20061;-94
2022/06/11 12:59:20;;;;;;;7.90;1.83;;;23.70;60.60;;;;;;5042288;28;20045;-93
2022/06/11 13:02:00;;;;;;;7.15;1.70;;;23.80;60.40;;;;;;5068463;28;20111;-95
2022/06/11 13:05:01;;;;;;;7.70;1.85;;;23.90;60.20;;;;;;5064117;28;20053;-94
2022/06/11 13:07:51;;;;;;;8.23;2.20;;;23.90;60.00;;;;;;5183340;22;20062;-94
2022/06/11 13:13:18;;;;;;;6.95;1.90;;;23.90;59.60;;;;;;5018516;28;20049;-93
2022/06/11 13:15:59;;;;;;;9.45;1.95;;;23.90;59.50;;;;;;5022689;28;20030;-94
2022/06/11 13:18:34;;;;;;;7.13;2.10;;;24.00;59.40;;;;;;5073986;23;20037;-96
2022/06/11 13:21:11;;;;;;;6.88;1.70;;;24.00;59.40;;;;;;5064662;28;20055;-95
2022/06/11 13:24:05;;;;;;;8.15;2.10;;;24.10;59.40;;;;;;5058075;28;20053;-95
2022/06/11 13:26:42;;;;;;;9.57;2.20;;;24.10;59.20;;;;;;5041563;28;20110;-94
2022/06/11 13:29:24;;;;;;;6.82;1.52;;;24.20;59.00;;;;;;5062387;28;20048;-94
2022/06/11 13:32:01;;;;;;;8.05;1.80;;;24.30;58.90;;;;;;5055743;28;20053;-95